sensor_id;sensor_type;location;lat;lon;timestamp;temperature;humidity
40289;DHT22;28991;52.028;5.526;2023-03-23T00:02:29;19.70;52.30
40289;DHT22;28991;52.028;5.526;2023-03-23T00:04:58;19.60;52.20
40289;DHT22;28991;52.028;5.526;2023-03-23T00:07:25;20.00;52.60
40289;DHT22;28991;52.028;5.526;2023-03-23T00:09:53;19.60;52.20
40289;DHT22;28991;52.028;5.526;2023-03-23T00:12:25;20.80;52.90
40289;DHT22;28991;52.028;5.526;2023-03-23T00:15:01;19.80;52.50
40289;DHT22;28991;52.028;5.526;2023-03-23T00:17:28;19.60;52.20
40289;DHT22;28991;52.028;5.526;2023-03-23T00:19:55;19.60;52.20
40289;DHT22;28991;52.028;5.526;2023-03-23T00:22:21;20.10;52.50
40289;DHT22;28991;52.028;5.526;2023-03-23T00:24:50;19.60;52.30
40289;DHT22;28991;52.028;5.526;2023-03-23T00:27:17;19.60;52.20
40289;DHT22;28991;52.028;5.526;2023-03-23T00:29:43;20.00;52.40
40289;DHT22;28991;52.028;5.526;2023-03-23T00:32:11;19.60;52.30
40289;DHT22;28991;52.028;5.526;2023-03-23T00:34:42;19.60;52.20
40289;DHT22;28991;52.028;5.526;2023-03-23T00:37:11;19.70;52.20
40289;DHT22;28991;52.028;5.526;2023-03-23T00:39:38;19.60;52.20
40289;DHT22;28991;52.028;5.526;2023-03-23T00:42:04;19.60;52.20
40289;DHT22;28991;52.028;5.526;2023-03-23T00:44:31;19.60;52.20
40289;DHT22;28991;52.028;5.526;2023-03-23T00:46:58;19.60;52.20
40289;DHT22;28991;52.028;5.526;2023-03-23T00:49:25;20.20;52.50
40289;DHT22;28991;52.028;5.526;2023-03-23T00:51:56;19.50;52.20
40289;DHT22;28991;52.028;5.526;2023-03-23T00:54:23;19.60;52.20
40289;DHT22;28991;52.028;5.526;2023-03-23T00:56:49;20.00;52.40
40289;DHT22;28991;52.028;5.526;2023-03-23T00:59:14;19.60;52.20
40289;DHT22;28991;52.028;5.526;2023-03-23T01:01:40;19.80;52.50
40289;DHT22;28991;52.028;5.526;2023-03-23T01:04:07;19.60;52.20
40289;DHT22;28991;52.028;5.526;2023-03-23T01:06:37;19.70;52.40
40289;DHT22;28991;52.028;5.526;2023-03-23T01:09:10;19.50;52.10
40289;DHT22;28991;52.028;5.526;2023-03-23T01:11:36;19.60;52.20
40289;DHT22;28991;52.028;5.526;2023-03-23T01:14:03;19.70;52.20
40289;DHT22;28991;52.028;5.526;2023-03-23T01:16:28;19.70;52.40
40289;DHT22;28991;52.028;5.526;2023-03-23T01:18:54;19.80;52.50
40289;DHT22;28991;52.028;5.526;2023-03-23T01:21:21;19.50;52.10
40289;DHT22;28991;52.028;5.526;2023-03-23T01:23:47;19.60;52.20
40289;DHT22;28991;52.028;5.526;2023-03-23T01:26:16;19.60;52.20
40289;DHT22;28991;52.028;5.526;2023-03-23T01:28:43;19.60;52.20
40289;DHT22;28991;52.028;5.526;2023-03-23T01:31:12;19.60;52.20
40289;DHT22;28991;52.028;5.526;2023-03-23T01:33:39;19.60;52.20
40289;DHT22;28991;52.028;5.526;2023-03-23T01:36:07;20.00;52.50
40289;DHT22;28991;52.028;5.526;2023-03-23T01:38:34;19.50;52.10
40289;DHT22;28991;52.028;5.526;2023-03-23T01:41:01;19.60;52.20
40289;DHT22;28991;52.028;5.526;2023-03-23T01:43:27;19.50;52.20
40289;DHT22;28991;52.028;5.526;2023-03-23T01:45:53;19.50;52.10
40289;DHT22;28991;52.028;5.526;2023-03-23T01:48:22;19.60;52.20
40289;DHT22;28991;52.028;5.526;2023-03-23T01:53:46;19.60;52.20
40289;DHT22;28991;52.028;5.526;2023-03-23T01:56:14;19.60;52.30
40289;DHT22;28991;52.028;5.526;2023-03-23T01:58:41;19.30;52.20
40289;DHT22;28991;52.028;5.526;2023-03-23T02:01:10;19.50;52.20
40289;DHT22;28991;52.028;5.526;2023-03-23T02:03:39;19.60;52.20
40289;DHT22;28991;52.028;5.526;2023-03-23T02:06:06;20.00;52.40
40289;DHT22;28991;52.028;5.526;2023-03-23T02:08:33;19.50;52.20
40289;DHT22;28991;52.028;5.526;2023-03-23T02:10:59;19.60;52.20
40289;DHT22;28991;52.028;5.526;2023-03-23T02:13:26;19.50;52.20
40289;DHT22;28991;52.028;5.526;2023-03-23T02:24:34;19.50;52.20
40289;DHT22;28991;52.028;5.526;2023-03-23T02:27:28;19.60;52.30
40289;DHT22;28991;52.028;5.526;2023-03-23T02:41:06;19.60;52.20
40289;DHT22;28991;52.028;5.526;2023-03-23T02:43:40;19.50;52.10
40289;DHT22;28991;52.028;5.526;2023-03-23T02:46:08;19.60;52.20
40289;DHT22;28991;52.028;5.526;2023-03-23T02:48:37;20.30;52.60
40289;DHT22;28991;52.028;5.526;2023-03-23T02:51:04;19.90;52.30
40289;DHT22;28991;52.028;5.526;2023-03-23T02:53:33;19.60;52.20
40289;DHT22;28991;52.028;5.526;2023-03-23T02:56:01;19.50;52.30
40289;DHT22;28991;52.028;5.526;2023-03-23T02:58:28;19.50;52.10
40289;DHT22;28991;52.028;5.526;2023-03-23T03:00:55;19.60;52.20
40289;DHT22;28991;52.028;5.526;2023-03-23T03:03:23;19.80;52.40
40289;DHT22;28991;52.028;5.526;2023-03-23T03:11:08;19.60;52.20
40289;DHT22;28991;52.028;5.526;2023-03-23T03:13:59;19.60;52.20
40289;DHT22;28991;52.028;5.526;2023-03-23T03:16:40;19.50;52.20
40289;DHT22;28991;52.028;5.526;2023-03-23T03:19:14;19.50;52.20
40289;DHT22;28991;52.028;5.526;2023-03-23T03:21:43;19.50;52.20
40289;DHT22;28991;52.028;5.526;2023-03-23T03:24:11;19.50;52.20
40289;DHT22;28991;52.028;5.526;2023-03-23T03:26:40;19.80;52.40
40289;DHT22;28991;52.028;5.526;2023-03-23T03:29:06;19.50;52.20
40289;DHT22;28991;52.028;5.526;2023-03-23T03:31:36;19.50;52.20
40289;DHT22;28991;52.028;5.526;2023-03-23T03:34:04;19.70;52.30
40289;DHT22;28991;52.028;5.526;2023-03-23T03:36:33;19.50;52.20
40289;DHT22;28991;52.028;5.526;2023-03-23T03:39:02;19.40;52.10
40289;DHT22;28991;52.028;5.526;2023-03-23T03:41:34;19.50;52.10
40289;DHT22;28991;52.028;5.526;2023-03-23T03:44:00;19.50;52.10
40289;DHT22;28991;52.028;5.526;2023-03-23T03:46:26;19.50;52.10
40289;DHT22;28991;52.028;5.526;2023-03-23T03:48:55;19.50;52.20
40289;DHT22;28991;52.028;5.526;2023-03-23T03:51:22;19.50;52.20
40289;DHT22;28991;52.028;5.526;2023-03-23T03:53:47;19.60;52.20
40289;DHT22;28991;52.028;5.526;2023-03-23T03:56:13;19.50;52.10
40289;DHT22;28991;52.028;5.526;2023-03-23T03:58:39;19.50;52.20
40289;DHT22;28991;52.028;5.526;2023-03-23T04:01:08;19.70;52.30
40289;DHT22;28991;52.028;5.526;2023-03-23T04:03:36;19.00;52.00
40289;DHT22;28991;52.028;5.526;2023-03-23T04:06:02;19.50;52.10
40289;DHT22;28991;52.028;5.526;2023-03-23T04:08:28;19.50;52.10
40289;DHT22;28991;52.028;5.526;2023-03-23T04:10:54;19.10;52.10
40289;DHT22;28991;52.028;5.526;2023-03-23T04:13:20;19.50;52.10
40289;DHT22;28991;52.028;5.526;2023-03-23T04:15:46;19.30;52.20
40289;DHT22;28991;52.028;5.526;2023-03-23T04:18:13;19.50;52.10
40289;DHT22;28991;52.028;5.526;2023-03-23T04:20:44;19.50;52.10
40289;DHT22;28991;52.028;5.526;2023-03-23T04:23:13;19.50;52.10
40289;DHT22;28991;52.028;5.526;2023-03-23T04:25:38;20.20;52.50
40289;DHT22;28991;52.028;5.526;2023-03-23T04:28:06;19.70;52.40
40289;DHT22;28991;52.028;5.526;2023-03-23T04:30:32;19.40;52.10
40289;DHT22;28991;52.028;5.526;2023-03-23T04:32:58;19.50;52.20
40289;DHT22;28991;52.028;5.526;2023-03-23T04:35:25;19.50;52.10
40289;DHT22;28991;52.028;5.526;2023-03-23T04:37:52;19.40;52.10
40289;DHT22;28991;52.028;5.526;2023-03-23T04:40:19;19.50;52.10
40289;DHT22;28991;52.028;5.526;2023-03-23T04:42:45;19.50;52.10
40289;DHT22;28991;52.028;5.526;2023-03-23T04:45:13;19.50;52.10
40289;DHT22;28991;52.028;5.526;2023-03-23T04:47:41;20.10;52.50
40289;DHT22;28991;52.028;5.526;2023-03-23T04:50:07;20.10;52.40
40289;DHT22;28991;52.028;5.526;2023-03-23T04:52:33;19.50;52.10
40289;DHT22;28991;52.028;5.526;2023-03-23T04:54:59;19.50;52.20
40289;DHT22;28991;52.028;5.526;2023-03-23T04:57:24;19.50;52.10
40289;DHT22;28991;52.028;5.526;2023-03-23T04:59:53;19.20;52.10
40289;DHT22;28991;52.028;5.526;2023-03-23T05:02:19;19.50;52.10
40289;DHT22;28991;52.028;5.526;2023-03-23T05:04:45;19.50;52.20
40289;DHT22;28991;52.028;5.526;2023-03-23T05:07:11;19.60;52.30
40289;DHT22;28991;52.028;5.526;2023-03-23T05:09:37;19.50;52.10
40289;DHT22;28991;52.028;5.526;2023-03-23T05:12:06;19.60;52.20
40289;DHT22;28991;52.028;5.526;2023-03-23T05:14:32;19.40;52.10
40289;DHT22;28991;52.028;5.526;2023-03-23T05:16:58;20.20;52.50
40289;DHT22;28991;52.028;5.526;2023-03-23T05:19:23;19.40;52.10
40289;DHT22;28991;52.028;5.526;2023-03-23T05:21:49;20.00;52.40
40289;DHT22;28991;52.028;5.526;2023-03-23T05:24:15;19.50;52.10
40289;DHT22;28991;52.028;5.526;2023-03-23T05:26:40;19.50;52.10
40289;DHT22;28991;52.028;5.526;2023-03-23T05:29:06;19.30;52.00
40289;DHT22;28991;52.028;5.526;2023-03-23T05:31:31;19.50;52.10
40289;DHT22;28991;52.028;5.526;2023-03-23T05:33:57;19.50;52.10
40289;DHT22;28991;52.028;5.526;2023-03-23T05:36:23;19.30;52.00
40289;DHT22;28991;52.028;5.526;2023-03-23T05:38:50;19.60;52.40
40289;DHT22;28991;52.028;5.526;2023-03-23T05:41:16;20.10;52.70
40289;DHT22;28991;52.028;5.526;2023-03-23T05:43:42;19.60;52.10
40289;DHT22;28991;52.028;5.526;2023-03-23T05:46:08;19.50;52.10
40289;DHT22;28991;52.028;5.526;2023-03-23T05:48:34;19.50;52.10
40289;DHT22;28991;52.028;5.526;2023-03-23T05:51:00;19.40;52.20
40289;DHT22;28991;52.028;5.526;2023-03-23T05:53:25;19.40;52.00
40289;DHT22;28991;52.028;5.526;2023-03-23T05:55:51;19.10;52.10
40289;DHT22;28991;52.028;5.526;2023-03-23T05:58:18;19.60;52.20
40289;DHT22;28991;52.028;5.526;2023-03-23T06:00:43;19.10;52.10
40289;DHT22;28991;52.028;5.526;2023-03-23T06:03:10;19.60;52.20
40289;DHT22;28991;52.028;5.526;2023-03-23T06:05:42;19.50;52.10
40289;DHT22;28991;52.028;5.526;2023-03-23T06:08:09;19.70;52.70
40289;DHT22;28991;52.028;5.526;2023-03-23T06:10:35;19.50;52.40
40289;DHT22;28991;52.028;5.526;2023-03-23T06:13:02;19.40;52.20
40289;DHT22;28991;52.028;5.526;2023-03-23T06:15:28;19.50;52.10
40289;DHT22;28991;52.028;5.526;2023-03-23T06:18:03;18.80;51.60
40289;DHT22;28991;52.028;5.526;2023-03-23T06:20:29;19.70;51.80
40289;DHT22;28991;52.028;5.526;2023-03-23T06:22:55;20.10;51.90
40289;DHT22;28991;52.028;5.526;2023-03-23T06:25:23;19.70;52.00
40289;DHT22;28991;52.028;5.526;2023-03-23T06:27:49;19.80;51.70
40289;DHT22;28991;52.028;5.526;2023-03-23T06:30:17;19.80;51.50
40289;DHT22;28991;52.028;5.526;2023-03-23T06:32:44;19.90;52.00
40289;DHT22;28991;52.028;5.526;2023-03-23T06:35:13;20.10;52.40
40289;DHT22;28991;52.028;5.526;2023-03-23T06:37:39;19.90;52.00
40289;DHT22;28991;52.028;5.526;2023-03-23T06:40:05;19.90;51.80
40289;DHT22;28991;52.028;5.526;2023-03-23T06:42:34;20.00;51.90
40289;DHT22;28991;52.028;5.526;2023-03-23T06:45:01;20.10;51.70
40289;DHT22;28991;52.028;5.526;2023-03-23T06:47:27;20.00;51.50
40289;DHT22;28991;52.028;5.526;2023-03-23T06:49:58;20.50;51.50
40289;DHT22;28991;52.028;5.526;2023-03-23T06:52:25;20.50;51.40
40289;DHT22;28991;52.028;5.526;2023-03-23T06:54:51;20.10;51.00
40289;DHT22;28991;52.028;5.526;2023-03-23T06:57:18;20.10;50.90
40289;DHT22;28991;52.028;5.526;2023-03-23T06:59:44;20.10;50.90
40289;DHT22;28991;52.028;5.526;2023-03-23T07:02:11;20.00;51.10
40289;DHT22;28991;52.028;5.526;2023-03-23T07:04:38;20.10;50.90
40289;DHT22;28991;52.028;5.526;2023-03-23T07:07:04;20.40;51.30
40289;DHT22;28991;52.028;5.526;2023-03-23T07:09:30;20.10;50.90
40289;DHT22;28991;52.028;5.526;2023-03-23T07:11:56;20.10;50.90
40289;DHT22;28991;52.028;5.526;2023-03-23T07:14:22;20.10;50.90
40289;DHT22;28991;52.028;5.526;2023-03-23T07:16:48;19.40;51.50
40289;DHT22;28991;52.028;5.526;2023-03-23T07:19:14;20.10;51.40
40289;DHT22;28991;52.028;5.526;2023-03-23T07:21:39;20.10;51.20
40289;DHT22;28991;52.028;5.526;2023-03-23T07:24:05;20.50;51.90
40289;DHT22;28991;52.028;5.526;2023-03-23T07:26:31;20.30;51.40
40289;DHT22;28991;52.028;5.526;2023-03-23T07:28:57;20.40;51.10
40289;DHT22;28991;52.028;5.526;2023-03-23T07:31:23;20.30;50.60
40289;DHT22;28991;52.028;5.526;2023-03-23T07:33:48;20.00;50.70
40289;DHT22;28991;52.028;5.526;2023-03-23T07:36:14;20.20;50.40
40289;DHT22;28991;52.028;5.526;2023-03-23T07:38:40;20.20;50.70
40289;DHT22;28991;52.028;5.526;2023-03-23T07:41:06;19.90;50.60
40289;DHT22;28991;52.028;5.526;2023-03-23T07:43:32;20.30;50.40
40289;DHT22;28991;52.028;5.526;2023-03-23T07:45:58;20.40;50.60
40289;DHT22;28991;52.028;5.526;2023-03-23T07:48:24;20.30;50.90
40289;DHT22;28991;52.028;5.526;2023-03-23T07:50:49;20.50;51.40
40289;DHT22;28991;52.028;5.526;2023-03-23T07:53:15;20.40;50.80
40289;DHT22;28991;52.028;5.526;2023-03-23T07:55:41;20.40;50.90
40289;DHT22;28991;52.028;5.526;2023-03-23T07:58:06;20.30;50.40
40289;DHT22;28991;52.028;5.526;2023-03-23T08:00:32;20.40;50.50
40289;DHT22;28991;52.028;5.526;2023-03-23T08:02:58;20.40;50.50
40289;DHT22;28991;52.028;5.526;2023-03-23T08:05:25;20.60;50.70
40289;DHT22;28991;52.028;5.526;2023-03-23T08:07:52;20.20;51.00
40289;DHT22;28991;52.028;5.526;2023-03-23T08:10:20;20.30;51.60
40289;DHT22;28991;52.028;5.526;2023-03-23T08:12:54;20.10;51.30
40289;DHT22;28991;52.028;5.526;2023-03-23T08:15:20;20.40;50.80
40289;DHT22;28991;52.028;5.526;2023-03-23T08:17:47;20.30;51.30
40289;DHT22;28991;52.028;5.526;2023-03-23T08:20:14;20.40;50.80
40289;DHT22;28991;52.028;5.526;2023-03-23T08:22:43;20.50;50.80
40289;DHT22;28991;52.028;5.526;2023-03-23T08:25:11;20.40;50.70
40289;DHT22;28991;52.028;5.526;2023-03-23T08:27:38;20.40;50.80
40289;DHT22;28991;52.028;5.526;2023-03-23T08:30:09;20.40;50.70
40289;DHT22;28991;52.028;5.526;2023-03-23T08:32:36;20.60;51.50
40289;DHT22;28991;52.028;5.526;2023-03-23T08:35:01;20.20;51.20
40289;DHT22;28991;52.028;5.526;2023-03-23T08:37:28;20.40;50.80
40289;DHT22;28991;52.028;5.526;2023-03-23T08:39:55;20.50;50.80
40289;DHT22;28991;52.028;5.526;2023-03-23T08:42:24;20.30;52.10
40289;DHT22;28991;52.028;5.526;2023-03-23T08:44:50;20.50;51.50
40289;DHT22;28991;52.028;5.526;2023-03-23T08:47:16;20.60;51.50
40289;DHT22;28991;52.028;5.526;2023-03-23T08:49:43;21.50;52.80
40289;DHT22;28991;52.028;5.526;2023-03-23T08:52:09;20.60;51.50
40289;DHT22;28991;52.028;5.526;2023-03-23T08:54:35;20.60;51.70
40289;DHT22;28991;52.028;5.526;2023-03-23T08:57:01;20.70;52.10
40289;DHT22;28991;52.028;5.526;2023-03-23T08:59:28;20.70;52.00
40289;DHT22;28991;52.028;5.526;2023-03-23T09:01:54;21.20;52.20
40289;DHT22;28991;52.028;5.526;2023-03-23T09:04:20;20.80;52.00
40289;DHT22;28991;52.028;5.526;2023-03-23T09:06:46;20.80;51.90
40289;DHT22;28991;52.028;5.526;2023-03-23T09:09:12;20.80;51.80
40289;DHT22;28991;52.028;5.526;2023-03-23T09:11:38;20.90;51.50
40289;DHT22;28991;52.028;5.526;2023-03-23T09:14:06;21.00;51.40
40289;DHT22;28991;52.028;5.526;2023-03-23T09:16:33;23.20;53.10
40289;DHT22;28991;52.028;5.526;2023-03-23T09:18:59;20.40;51.60
40289;DHT22;28991;52.028;5.526;2023-03-23T09:21:26;21.20;51.00
40289;DHT22;28991;52.028;5.526;2023-03-23T09:23:53;21.30;50.80
40289;DHT22;28991;52.028;5.526;2023-03-23T09:26:19;20.90;50.40
40289;DHT22;28991;52.028;5.526;2023-03-23T09:28:45;21.40;50.50
40289;DHT22;28991;52.028;5.526;2023-03-23T09:31:11;21.40;50.40
40289;DHT22;28991;52.028;5.526;2023-03-23T09:33:38;21.40;50.20
40289;DHT22;28991;52.028;5.526;2023-03-23T09:36:04;21.50;50.00
40289;DHT22;28991;52.028;5.526;2023-03-23T09:38:31;21.60;50.00
40289;DHT22;28991;52.028;5.526;2023-03-23T09:46:22;21.70;49.50
40289;DHT22;28991;52.028;5.526;2023-03-23T09:48:59;21.80;49.30
40289;DHT22;28991;52.028;5.526;2023-03-23T09:51:40;21.80;49.10
40289;DHT22;28991;52.028;5.526;2023-03-23T09:54:26;21.90;49.10
40289;DHT22;28991;52.028;5.526;2023-03-23T09:56:53;21.90;49.10
40289;DHT22;28991;52.028;5.526;2023-03-23T10:02:12;21.80;49.20
40289;DHT22;28991;52.028;5.526;2023-03-23T10:04:52;21.70;49.20
40289;DHT22;28991;52.028;5.526;2023-03-23T10:07:21;21.70;49.20
40289;DHT22;28991;52.028;5.526;2023-03-23T10:09:53;22.00;50.20
40289;DHT22;28991;52.028;5.526;2023-03-23T10:17:47;22.20;48.00
40289;DHT22;28991;52.028;5.526;2023-03-23T10:22:54;22.40;47.60
40289;DHT22;28991;52.028;5.526;2023-03-23T10:25:24;22.50;47.10
40289;DHT22;28991;52.028;5.526;2023-03-23T10:28:04;22.50;46.90
40289;DHT22;28991;52.028;5.526;2023-03-23T10:30:41;22.70;46.60
40289;DHT22;28991;52.028;5.526;2023-03-23T10:33:16;22.40;47.50
40289;DHT22;28991;52.028;5.526;2023-03-23T10:36:06;22.90;46.50
40289;DHT22;28991;52.028;5.526;2023-03-23T10:38:41;23.10;45.80
40289;DHT22;28991;52.028;5.526;2023-03-23T10:41:14;23.20;45.50
40289;DHT22;28991;52.028;5.526;2023-03-23T10:43:41;23.30;45.10
40289;DHT22;28991;52.028;5.526;2023-03-23T10:46:22;23.40;45.00
40289;DHT22;28991;52.028;5.526;2023-03-23T10:48:52;23.40;44.70
40289;DHT22;28991;52.028;5.526;2023-03-23T10:51:21;23.30;44.70
40289;DHT22;28991;52.028;5.526;2023-03-23T10:53:57;23.10;44.90
40289;DHT22;28991;52.028;5.526;2023-03-23T10:56:27;23.00;45.30
40289;DHT22;28991;52.028;5.526;2023-03-23T10:58:53;23.40;44.80
40289;DHT22;28991;52.028;5.526;2023-03-23T11:01:32;23.70;44.00
40289;DHT22;28991;52.028;5.526;2023-03-23T11:03:58;24.00;43.40
40289;DHT22;28991;52.028;5.526;2023-03-23T11:06:33;24.20;42.90
40289;DHT22;28991;52.028;5.526;2023-03-23T11:09:11;24.50;42.10
40289;DHT22;28991;52.028;5.526;2023-03-23T11:11:42;24.80;41.30
40289;DHT22;28991;52.028;5.526;2023-03-23T11:14:25;25.00;40.80
40289;DHT22;28991;52.028;5.526;2023-03-23T11:16:52;25.00;40.40
40289;DHT22;28991;52.028;5.526;2023-03-23T11:19:36;24.70;40.30
40289;DHT22;28991;52.028;5.526;2023-03-23T11:22:20;24.30;40.70
40289;DHT22;28991;52.028;5.526;2023-03-23T11:24:53;23.80;41.50
40289;DHT22;28991;52.028;5.526;2023-03-23T11:27:19;23.50;42.10
40289;DHT22;28991;52.028;5.526;2023-03-23T11:29:58;23.30;42.60
40289;DHT22;28991;52.028;5.526;2023-03-23T11:32:28;23.30;43.20
40289;DHT22;28991;52.028;5.526;2023-03-23T11:34:57;23.40;43.20
40289;DHT22;28991;52.028;5.526;2023-03-23T11:37:48;23.40;43.10
40289;DHT22;28991;52.028;5.526;2023-03-23T11:40:18;23.20;43.30
40289;DHT22;28991;52.028;5.526;2023-03-23T11:42:47;23.10;43.70
40289;DHT22;28991;52.028;5.526;2023-03-23T11:50:31;22.60;44.90
40289;DHT22;28991;52.028;5.526;2023-03-23T11:53:22;22.60;45.20
40289;DHT22;28991;52.028;5.526;2023-03-23T11:58:37;22.50;45.30
40289;DHT22;28991;52.028;5.526;2023-03-23T12:14:55;22.30;47.10
40289;DHT22;28991;52.028;5.526;2023-03-23T12:23:08;22.10;46.40
40289;DHT22;28991;52.028;5.526;2023-03-23T12:28:48;22.00;46.40
40289;DHT22;28991;52.028;5.526;2023-03-23T12:37:07;21.90;46.40
40289;DHT22;28991;52.028;5.526;2023-03-23T12:44:59;21.80;46.50
40289;DHT22;28991;52.028;5.526;2023-03-23T12:47:42;21.80;46.60
40289;DHT22;28991;52.028;5.526;2023-03-23T12:55:17;21.80;46.60
40289;DHT22;28991;52.028;5.526;2023-03-23T12:58:07;21.80;46.80
40289;DHT22;28991;52.028;5.526;2023-03-23T13:00:52;21.80;46.90
40289;DHT22;28991;52.028;5.526;2023-03-23T13:08:31;21.70;47.30
40289;DHT22;28991;52.028;5.526;2023-03-23T13:11:05;21.70;47.30
40289;DHT22;28991;52.028;5.526;2023-03-23T13:13:54;21.70;47.40
40289;DHT22;28991;52.028;5.526;2023-03-23T13:17:06;21.70;47.50
40289;DHT22;28991;52.028;5.526;2023-03-23T13:24:45;21.60;47.20
40289;DHT22;28991;52.028;5.526;2023-03-23T13:27:13;21.60;47.20
40289;DHT22;28991;52.028;5.526;2023-03-23T13:29:44;21.40;47.00
40289;DHT22;28991;52.028;5.526;2023-03-23T13:32:15;21.50;46.90
40289;DHT22;28991;52.028;5.526;2023-03-23T13:34:41;21.50;46.60
40289;DHT22;28991;52.028;5.526;2023-03-23T13:37:20;21.50;47.00
40289;DHT22;28991;52.028;5.526;2023-03-23T13:39:52;21.40;47.00
40289;DHT22;28991;52.028;5.526;2023-03-23T13:42:24;21.40;46.80
40289;DHT22;28991;52.028;5.526;2023-03-23T14:03:03;21.30;47.00
40289;DHT22;28991;52.028;5.526;2023-03-23T14:05:34;21.30;47.20
40289;DHT22;28991;52.028;5.526;2023-03-23T14:10:44;21.20;47.40
40289;DHT22;28991;52.028;5.526;2023-03-23T14:13:24;21.20;47.50
40289;DHT22;28991;52.028;5.526;2023-03-23T14:18:29;21.20;47.70
40289;DHT22;28991;52.028;5.526;2023-03-23T14:20:55;21.20;48.00
40289;DHT22;28991;52.028;5.526;2023-03-23T14:23:22;21.20;48.10
40289;DHT22;28991;52.028;5.526;2023-03-23T14:25:55;21.20;48.20
40289;DHT22;28991;52.028;5.526;2023-03-23T14:28:21;21.20;48.20
40289;DHT22;28991;52.028;5.526;2023-03-23T14:30:51;21.10;48.10
40289;DHT22;28991;52.028;5.526;2023-03-23T14:33:18;21.20;48.20
40289;DHT22;28991;52.028;5.526;2023-03-23T14:35:45;21.20;48.20
40289;DHT22;28991;52.028;5.526;2023-03-23T14:38:19;21.20;48.10
40289;DHT22;28991;52.028;5.526;2023-03-23T14:40:46;21.10;48.30
40289;DHT22;28991;52.028;5.526;2023-03-23T14:43:16;21.20;47.90
40289;DHT22;28991;52.028;5.526;2023-03-23T14:45:43;21.20;47.70
40289;DHT22;28991;52.028;5.526;2023-03-23T14:48:12;21.20;47.60
40289;DHT22;28991;52.028;5.526;2023-03-23T14:50:49;21.20;47.30
40289;DHT22;28991;52.028;5.526;2023-03-23T14:53:31;21.20;47.40
40289;DHT22;28991;52.028;5.526;2023-03-23T14:56:00;21.40;47.30
40289;DHT22;28991;52.028;5.526;2023-03-23T14:58:28;21.40;47.10
40289;DHT22;28991;52.028;5.526;2023-03-23T15:00:55;21.20;47.10
40289;DHT22;28991;52.028;5.526;2023-03-23T15:03:22;21.20;47.10
40289;DHT22;28991;52.028;5.526;2023-03-23T15:05:54;21.20;47.00
40289;DHT22;28991;52.028;5.526;2023-03-23T15:08:25;21.20;46.90
40289;DHT22;28991;52.028;5.526;2023-03-23T15:13:54;21.20;46.60
40289;DHT22;28991;52.028;5.526;2023-03-23T15:16:26;21.20;46.60
40289;DHT22;28991;52.028;5.526;2023-03-23T15:21:29;21.20;46.60
40289;DHT22;28991;52.028;5.526;2023-03-23T15:23:56;21.20;46.60
40289;DHT22;28991;52.028;5.526;2023-03-23T15:29:01;21.20;46.90
40289;DHT22;28991;52.028;5.526;2023-03-23T15:31:27;21.20;46.80
40289;DHT22;28991;52.028;5.526;2023-03-23T15:33:58;21.20;46.80
40289;DHT22;28991;52.028;5.526;2023-03-23T15:36:24;21.30;47.00
40289;DHT22;28991;52.028;5.526;2023-03-23T15:38:50;21.20;47.00
40289;DHT22;28991;52.028;5.526;2023-03-23T15:41:27;21.10;47.00
40289;DHT22;28991;52.028;5.526;2023-03-23T15:43:56;21.20;47.10
40289;DHT22;28991;52.028;5.526;2023-03-23T15:46:28;21.20;47.20
40289;DHT22;28991;52.028;5.526;2023-03-23T15:49:08;21.20;47.20
40289;DHT22;28991;52.028;5.526;2023-03-23T15:51:35;21.10;47.20
40289;DHT22;28991;52.028;5.526;2023-03-23T15:54:01;21.20;47.30
40289;DHT22;28991;52.028;5.526;2023-03-23T15:56:26;21.10;47.30
40289;DHT22;28991;52.028;5.526;2023-03-23T15:58:53;21.10;47.40
40289;DHT22;28991;52.028;5.526;2023-03-23T16:01:24;21.00;47.40
40289;DHT22;28991;52.028;5.526;2023-03-23T16:06:19;21.00;47.50
40289;DHT22;28991;52.028;5.526;2023-03-23T16:08:45;21.00;48.10
40289;DHT22;28991;52.028;5.526;2023-03-23T16:11:15;20.90;47.50
40289;DHT22;28991;52.028;5.526;2023-03-23T16:13:42;20.90;47.60
40289;DHT22;28991;52.028;5.526;2023-03-23T16:16:17;20.90;47.60
40289;DHT22;28991;52.028;5.526;2023-03-23T16:18:43;20.90;47.60
40289;DHT22;28991;52.028;5.526;2023-03-23T16:21:09;20.80;47.60
40289;DHT22;28991;52.028;5.526;2023-03-23T16:23:34;20.70;47.60
40289;DHT22;28991;52.028;5.526;2023-03-23T16:26:00;20.80;47.70
40289;DHT22;28991;52.028;5.526;2023-03-23T16:28:26;20.80;47.70
40289;DHT22;28991;52.028;5.526;2023-03-23T16:30:51;20.70;47.70
40289;DHT22;28991;52.028;5.526;2023-03-23T16:33:17;20.80;47.80
40289;DHT22;28991;52.028;5.526;2023-03-23T16:35:42;20.80;47.80
40289;DHT22;28991;52.028;5.526;2023-03-23T16:38:13;20.70;47.80
40289;DHT22;28991;52.028;5.526;2023-03-23T16:40:41;20.70;47.80
40289;DHT22;28991;52.028;5.526;2023-03-23T16:43:06;20.70;47.80
40289;DHT22;28991;52.028;5.526;2023-03-23T16:45:32;20.70;47.80
40289;DHT22;28991;52.028;5.526;2023-03-23T16:47:58;21.00;48.00
40289;DHT22;28991;52.028;5.526;2023-03-23T16:50:27;20.70;47.90
40289;DHT22;28991;52.028;5.526;2023-03-23T16:52:53;20.70;47.90
40289;DHT22;28991;52.028;5.526;2023-03-23T16:55:19;21.00;48.10
40289;DHT22;28991;52.028;5.526;2023-03-23T16:57:45;20.60;48.00
40289;DHT22;28991;52.028;5.526;2023-03-23T17:00:13;20.60;48.00
40289;DHT22;28991;52.028;5.526;2023-03-23T17:02:41;20.60;48.10
40289;DHT22;28991;52.028;5.526;2023-03-23T17:05:08;20.90;48.80
40289;DHT22;28991;52.028;5.526;2023-03-23T17:07:36;20.60;48.10
40289;DHT22;28991;52.028;5.526;2023-03-23T17:10:01;20.90;48.80
40289;DHT22;28991;52.028;5.526;2023-03-23T17:12:27;20.60;48.20
40289;DHT22;28991;52.028;5.526;2023-03-23T17:14:53;21.10;49.00
40289;DHT22;28991;52.028;5.526;2023-03-23T17:17:18;20.60;48.20
40289;DHT22;28991;52.028;5.526;2023-03-23T17:19:44;20.60;48.20
40289;DHT22;28991;52.028;5.526;2023-03-23T17:22:10;20.60;48.20
40289;DHT22;28991;52.028;5.526;2023-03-23T17:24:35;20.60;48.20
40289;DHT22;28991;52.028;5.526;2023-03-23T17:27:01;20.60;48.30
40289;DHT22;28991;52.028;5.526;2023-03-23T17:29:27;20.50;48.20
40289;DHT22;28991;52.028;5.526;2023-03-23T17:31:52;21.00;48.90
40289;DHT22;28991;52.028;5.526;2023-03-23T17:34:18;20.60;48.30
40289;DHT22;28991;52.028;5.526;2023-03-23T17:36:44;20.60;48.40
40289;DHT22;28991;52.028;5.526;2023-03-23T17:39:09;20.50;48.80
40289;DHT22;28991;52.028;5.526;2023-03-23T17:41:35;20.60;48.40
40289;DHT22;28991;52.028;5.526;2023-03-23T17:44:00;20.50;48.40
40289;DHT22;28991;52.028;5.526;2023-03-23T17:46:26;20.60;48.50
40289;DHT22;28991;52.028;5.526;2023-03-23T17:48:52;20.50;48.50
40289;DHT22;28991;52.028;5.526;2023-03-23T17:51:18;21.00;49.10
40289;DHT22;28991;52.028;5.526;2023-03-23T17:53:43;20.50;48.50
40289;DHT22;28991;52.028;5.526;2023-03-23T17:56:09;20.50;48.60